Flight Track Log - Related Links

Times and Time Zones

All times are in EST time to prevent confusion due to time zone crossing. See the UCA3597 flight status page for this flight to view local times or setup timezone preferences in your user account.

Time Position Orientation Groundspeed Altitude Reporting Facility
EST Latitude Longitude Course Direction KTS MPH feet Rate Location/Type
Wed 07:16:51 PM 42.2197 -76.0153 212° Southwest 253 291 3,600  Level New York Center
Wed 07:17:51 PM 42.1808 -76.0486 212° Southwest 166 191 5,500 1,950 Climbing New York Center
Wed 07:18:51 PM 42.1397 -76.0817 211° Southwest 171 197 7,500 1,550 Climbing New York Center
Wed 07:19:51 PM 42.0964 -76.1231 215° Southwest 177 204 8,600 1,600 Climbing New York Center
Wed 07:20:51 PM 42.0511 -76.1556 208° Southwest 183 211 10,700 1,900 Climbing New York Center
Wed 07:21:51 PM 42.0086 -76.1772 201° Southwest 185 213 12,400 1,800 Climbing New York Center
Wed 07:22:00 PM 41.8858 -76.1331 212° Southwest  Level Estimated
Wed 07:22:51 PM 41.9592 -76.2067 204° Southwest 179 206 14,300  Level New York Center
Wed 07:23:51 PM 41.9164 -76.2339 205° Southwest 179 206 15,800 800 Climbing New York Center
Wed 07:24:51 PM 41.8672 -76.2633 204° Southwest 185 213 15,900 50 Climbing New York Center
Wed 07:25:51 PM 41.8156 -76.2953 205° Southwest 210 242 15,900  Level New York Center
Wed 07:26:51 PM 41.7600 -76.3267 203° Southwest 220 253 15,900 50 Level New York Center
Wed 07:27:51 PM 41.6981 -76.3606 202° Southwest 220 253 16,000 50 Climbing New York Center
Wed 07:28:51 PM 41.6444 -76.3919 203° Southwest 220 253 16,000  Level New York Center
Wed 07:29:00 PM 41.6410 -76.4075 203° Southwest  Level FlightAware Approximate
Wed 07:29:51 PM 41.5889 -76.4233 203° Southwest 220 253 16,000  Level New York Center
Wed 07:30:51 PM 41.5397 -76.4525 204° Southwest 220 253 16,000  Level New York Center
Wed 07:31:51 PM 41.4797 -76.4861 203° Southwest 220 253 16,000  Level New York Center
Wed 07:32:51 PM 41.4258 -76.5203 205° Southwest 220 253 16,000  Level New York Center
Wed 07:33:51 PM 41.3703 -76.5489 201° Southwest 220 253 16,000  Level New York Center
Wed 07:34:51 PM 41.3211 -76.5778 204° Southwest 220 253 16,000  Level New York Center
Wed 07:35:51 PM 41.2675 -76.6092 204° Southwest 215 247 16,000  Level New York Center
Wed 07:36:51 PM 41.2094 -76.6428 204° Southwest 220 253 16,000  Level New York Center
Wed 07:37:51 PM 41.1600 -76.6742 206° Southwest 220 253 16,000  Level New York Center
Wed 07:38:51 PM 41.1086 -76.7028 203° Southwest 220 253 16,000  Level New York Center
Wed 07:39:51 PM 41.0592 -76.7314 204° Southwest 215 247 16,000  Level New York Center
Wed 07:40:51 PM 41.0100 -76.7575 202° Southwest 209 241 16,000  Level New York Center
Wed 07:41:51 PM 40.9606 -76.7861 204° Southwest 204 235 16,000  Level New York Center
Wed 07:42:51 PM 40.9092 -76.8144 203° Southwest 204 235 16,000  Level New York Center
Wed 07:43:51 PM 40.8533 -76.8481 204° Southwest 199 229 16,000  Level New York Center
Wed 07:44:51 PM 40.8061 -76.8739 202° Southwest 205 236 16,000  Level New York Center
Wed 07:45:51 PM 40.7444 -76.8986 197° South 211 243 16,000  Level New York Center
Wed 07:46:51 PM 40.6914 -76.9156 194° South 216 249 16,000  Level New York Center
Wed 07:47:51 PM 40.6258 -76.9344 192° South 222 255 16,000  Level New York Center
Wed 07:48:51 PM 40.5728 -76.9517 194° South 222 255 16,000  Level New York Center
Wed 07:49:51 PM 40.5069 -76.9731 194° South 222 255 16,000  Level New York Center
Wed 07:50:51 PM 40.4519 -76.9897 193° South 227 261 16,000  Level New York Center
Wed 07:51:51 PM 40.3883 -77.0086 193° South 227 261 16,000  Level New York Center
Wed 07:52:51 PM 40.3356 -77.0256 194° South 227 261 16,000 -100 Level New York Center
Wed 07:53:51 PM 40.2697 -77.0469 194° South 227 261 15,800 -975 Descending New York Center
Wed 07:56:08 PM 40.1167 -77.0833 190° South 240 276 12,800 -1,333 Descending Potomac TRACON
Wed 07:57:09 PM 40.0667 -77.1167 207° Southwest 239 275 11,400 -1,357 Descending Potomac TRACON
Wed 07:58:03 PM 40.0000 -77.1333 191° South 245 282 10,200 -1,263 Descending Potomac TRACON
Wed 07:59:03 PM 39.9333 -77.1667 201° Southwest 224 258 9,000 -571 Descending Potomac TRACON
Wed 08:00:09 PM 39.8833 -77.2000 207° Southwest 219 252 9,000  Level Potomac TRACON
Wed 08:01:09 PM 39.8167 -77.2333 201° Southwest 225 259 9,000 -421 Level Potomac TRACON
Wed 08:02:03 PM 39.7667 -77.2667 207° Southwest 233 268 8,200 -947 Descending Potomac TRACON
Wed 08:03:03 PM 39.7167 -77.3000 207° Southwest 233 268 7,200 -1,000 Descending Potomac TRACON
Wed 08:04:03 PM 39.6667 -77.3333 207° Southwest 222 255 6,200 -750 Descending Potomac TRACON
Wed 08:05:03 PM 39.6000 -77.3833 210° Southwest 230 265 5,700 -600 Descending Potomac TRACON
Wed 08:06:03 PM 39.5500 -77.4000 194° South 233 268 5,000 -700 Descending Potomac TRACON
Wed 08:07:03 PM 39.4833 -77.4167 191° South 232 267 4,300 -526 Descending Potomac TRACON
Wed 08:07:57 PM 39.4167 -77.4333 191° South 235 270 4,000 -200 Descending Potomac TRACON
Wed 08:09:03 PM 39.3500 -77.4333 180° South 240 276 3,900 -350 Descending Potomac TRACON
Wed 08:09:57 PM 39.2833 -77.4333 180° South 239 275 3,300 -450 Descending Potomac TRACON
Wed 08:11:03 PM 39.2167 -77.4333 180° South 233 268 3,000 -143 Descending Potomac TRACON
Wed 08:12:03 PM 39.1500 -77.4333 180° South 237 273 3,000 -50 Level Potomac TRACON
Wed 08:13:03 PM 39.0833 -77.4333 180° South 230 265 2,900 -600 Descending Potomac TRACON
Wed 08:14:03 PM 39.0333 -77.4333 180° South 196 226 1,800 -952 Descending Potomac TRACON
Wed 08:15:09 PM 38.9833 -77.4333 180° South 136 157 900 -818 Descending Potomac TRACON
Wed 08:17:00 PM 38.9474 -77.4599 180° South  Level Estimated
Wed 08:24:00 PM 38.9474 -77.4599 349° North  Level Estimated
Wed 08:25:00 PM 38.9474 -77.4599 349° North  Level Estimated

Login

Don't have an account? Register now (free) for customized features, flight alerts, and more!